Time;durP1;ratioP1;P1;durP2;ratioP2;P2;SDS_P1;SDS_P2;PMS_P1;PMS_P2;Temp;Humidity;BMP_temperature;BMP_pressure;BME280_temperature;BME280_humidity;BME280_pressure;Samples;Min_cycle;Max_cycle;Signal;HPM_P1;HPM_P2
2023/07/29 00:00:10;;;;;;;0.60;0.30;;;;;;;14.05;69.87;100258.53;5009881;28;20049;-73
2023/07/29 00:02:37;;;;;;;0.77;0.30;;;;;;;14.04;70.01;100255.97;5009592;28;20159;-75
2023/07/29 00:05:04;;;;;;;3.13;0.50;;;;;;;14.03;69.95;100262.13;5009854;28;20060;-73
2023/07/29 00:07:31;;;;;;;0.60;0.30;;;;;;;14.02;70.11;100257.81;5009480;28;20050;-73
2023/07/29 00:09:58;;;;;;;0.57;0.50;;;;;;;14.01;70.10;100259.59;5009479;28;20049;-73
2023/07/29 00:12:25;;;;;;;0.57;0.38;;;;;;;13.99;70.16;100260.56;5009524;28;20077;-73
2023/07/29 00:14:53;;;;;;;1.40;0.40;;;;;;;13.97;70.36;100257.97;5009445;28;20053;-74
2023/07/29 00:17:20;;;;;;;1.35;0.30;;;;;;;13.96;70.40;100253.66;5009281;28;20042;-73
2023/07/29 00:19:47;;;;;;;1.70;1.20;;;;;;;13.95;70.62;100254.59;5009276;28;20042;-73
2023/07/29 00:22:14;;;;;;;1.88;0.38;;;;;;;13.94;70.58;100252.84;5008971;28;20049;-73
2023/07/29 00:24:41;;;;;;;0.40;0.30;;;;;;;13.93;70.64;100248.53;5009563;28;20058;-73
2023/07/29 00:27:08;;;;;;;0.80;0.40;;;;;;;13.92;70.81;100247.69;5007868;28;20046;-73
2023/07/29 00:29:35;;;;;;;0.85;0.30;;;;;;;13.90;70.72;100241.63;5009297;28;20054;-73
2023/07/29 00:32:03;;;;;;;2.03;0.30;;;;;;;13.89;70.90;100239.94;5008650;28;20045;-73
2023/07/29 00:34:30;;;;;;;0.70;0.68;;;;;;;13.89;70.83;100241.72;5009215;28;20756;-73
2023/07/29 00:36:57;;;;;;;0.55;0.30;;;;;;;13.87;70.71;100233.03;5009106;28;20050;-73
2023/07/29 00:39:24;;;;;;;0.30;0.30;;;;;;;13.87;70.67;100227.78;5008482;28;20052;-73
2023/07/29 00:41:51;;;;;;;2.90;0.75;;;;;;;13.83;70.86;100228.81;5008017;28;20530;-73
2023/07/29 00:44:18;;;;;;;2.53;0.30;;;;;;;13.71;70.97;100207.38;5007883;28;20042;-73
2023/07/29 00:46:47;;;;;;;0.38;0.35;;;;;;;13.84;70.96;100234.00;5008941;28;20079;-73
2023/07/29 00:49:15;;;;;;;0.80;0.40;;;;;;;13.84;70.84;100231.38;5008588;28;20056;-73
2023/07/29 00:51:42;;;;;;;0.68;0.30;;;;;;;13.82;70.89;100235.84;5007939;28;20053;-73
2023/07/29 00:54:09;;;;;;;1.95;0.30;;;;;;;13.81;70.84;100228.03;5008429;28;20057;-73
2023/07/29 00:56:36;;;;;;;1.02;0.45;;;;;;;13.80;70.98;100228.94;5008975;28;20556;-74
2023/07/29 00:59:04;;;;;;;0.98;0.30;;;;;;;13.80;70.96;100228.94;5006573;28;20046;-73
2023/07/29 01:01:31;;;;;;;0.70;0.70;;;;;;;13.76;71.05;100220.34;5008368;28;20049;-73
2023/07/29 01:03:57;;;;;;;2.92;0.32;;;;;;;13.77;71.03;100227.28;5008336;28;20053;-73
2023/07/29 01:06:35;;;;;;;0.80;0.32;;;;;;;13.77;71.18;100223.81;5008628;28;20041;-73
2023/07/29 01:09:05;;;;;;;0.63;0.30;;;;;;;13.76;71.29;100216.88;5008435;28;20135;-73
2023/07/29 01:11:43;;;;;;;0.40;0.30;;;;;;;13.75;71.21;100215.16;5008603;28;20053;-73
2023/07/29 01:14:19;;;;;;;0.90;0.30;;;;;;;13.68;71.15;100214.53;5007909;28;20053;-73
2023/07/29 01:16:53;;;;;;;1.77;0.30;;;;;;;13.71;71.30;100214.41;5005966;28;20057;-73
2023/07/29 01:19:48;;;;;;;0.30;0.30;;;;;;;13.71;71.26;100225.75;5008174;28;20061;-73
2023/07/29 01:22:17;;;;;;;1.23;0.30;;;;;;;13.66;71.33;100216.38;5008321;28;20137;-73
2023/07/29 01:24:45;;;;;;;1.60;0.40;;;;;;;13.70;71.37;100207.47;5007185;28;20053;-73
2023/07/29 01:27:12;;;;;;;0.40;0.40;;;;;;;13.69;71.56;100209.25;5007256;28;20053;-73
2023/07/29 01:29:39;;;;;;;0.70;0.30;;;;;;;13.64;71.43;100202.47;5008324;28;20057;-73
2023/07/29 01:32:13;;;;;;;3.33;0.30;;;;;;;13.68;71.59;100214.53;5008174;28;20053;-73
2023/07/29 01:34:46;;;;;;;0.50;0.47;;;;;;;13.67;71.62;100212.84;5007986;28;20052;-73
2023/07/29 01:37:18;;;;;;;1.02;0.50;;;;;;;13.66;71.37;100212.00;5005856;28;20073;-73
2023/07/29 01:39:47;;;;;;;3.58;0.30;;;;;;;13.66;71.48;100209.38;5006264;28;20049;-73
2023/07/29 01:42:13;;;;;;;1.63;0.30;;;;;;;13.66;71.41;100205.88;5006091;28;20062;-73
2023/07/29 01:44:42;;;;;;;0.77;0.30;;;;;;;13.65;71.38;100209.41;5007834;28;20050;-73
2023/07/29 01:47:09;;;;;;;4.05;0.57;;;;;;;13.64;71.34;100205.94;5007143;28;20054;-73
2023/07/29 01:49:35;;;;;;;1.55;0.40;;;;;;;13.61;71.46;100199.97;5007886;28;20065;-73
2023/07/29 01:52:02;;;;;;;0.98;0.47;;;;;;;13.62;71.25;100207.78;5006636;28;20045;-73
2023/07/29 01:54:29;;;;;;;0.60;0.40;;;;;;;13.60;71.44;100203.50;5007256;28;20053;-73
2023/07/29 01:56:57;;;;;;;0.77;0.40;;;;;;;13.60;71.26;100200.88;5007625;28;20058;-73
2023/07/29 01:59:24;;;;;;;0.60;0.30;;;;;;;13.58;71.20;100202.72;5007670;28;20046;-73
2023/07/29 02:01:51;;;;;;;1.48;0.32;;;;;;;13.58;71.37;100203.56;5007336;28;20054;-73
2023/07/29 02:04:18;;;;;;;2.45;0.50;;;;;;;13.57;71.34;100204.47;5007700;28;20052;-74
2023/07/29 02:06:44;;;;;;;0.75;0.30;;;;;;;13.56;71.17;100197.53;5007636;28;20045;-73
2023/07/29 02:09:11;;;;;;;2.25;0.30;;;;;;;13.54;71.37;100204.59;5005076;28;20704;-73
2023/07/29 02:11:38;;;;;;;2.58;0.30;;;;;;;13.54;71.40;100207.22;5007825;28;20058;-73
2023/07/29 02:14:06;;;;;;;0.40;0.30;;;;;;;13.46;71.30;100188.28;5007401;28;20046;-73
2023/07/29 02:16:34;;;;;;;3.90;0.38;;;;;;;13.51;71.43;100199.47;5007666;28;20061;-74
2023/07/29 02:19:01;;;;;;;0.40;0.30;;;;;;;13.50;71.41;100200.41;5007185;28;20054;-73
2023/07/29 02:21:28;;;;;;;1.20;0.40;;;;;;;13.47;71.35;100198.75;5007554;28;20052;-73
2023/07/29 02:23:55;;;;;;;2.25;0.90;;;;;;;13.48;71.39;100195.19;5007011;28;20046;-73
2023/07/29 02:26:21;;;;;;;0.47;0.40;;;;;;;13.48;71.55;100196.97;5006896;28;20686;-73
2023/07/29 02:28:48;;;;;;;2.08;0.40;;;;;;;13.45;71.53;100197.94;5007362;28;20050;-73
2023/07/29 02:31:18;;;;;;;0.65;0.30;;;;;;;13.46;71.58;100201.41;5007329;28;20050;-73
2023/07/29 02:33:45;;;;;;;0.40;0.30;;;;;;;13.46;71.64;100206.66;5007413;28;20050;-73
2023/07/29 02:36:13;;;;;;;1.00;0.32;;;;;;;13.41;71.52;100196.38;5007210;28;20061;-74
2023/07/29 02:38:40;;;;;;;0.47;0.47;;;;;;;13.44;71.48;100205.88;5007050;28;20049;-70
2023/07/29 02:41:08;;;;;;;0.30;0.30;;;;;;;13.43;71.54;100198.91;5007048;28;20061;-70
2023/07/29 02:43:35;;;;;;;0.40;0.35;;;;;;;13.43;71.65;100198.91;5007226;28;20133;-70
2023/07/29 02:46:02;;;;;;;2.95;0.50;;;;;;;13.42;71.69;100191.97;5006911;28;20053;-70
2023/07/29 02:48:31;;;;;;;0.60;0.43;;;;;;;13.42;71.97;100191.97;5007302;28;20433;-70
2023/07/29 02:50:57;;;;;;;0.75;0.30;;;;;;;13.40;71.90;100193.78;5006237;28;20054;-71
2023/07/29 02:53:25;;;;;;;1.90;0.30;;;;;;;13.41;72.23;100201.63;5007088;28;20050;-70
2023/07/29 02:55:52;;;;;;;1.48;0.30;;;;;;;13.41;72.18;100209.47;5007568;28;20053;-73
2023/07/29 02:58:19;;;;;;;1.83;0.30;;;;;;;13.38;72.32;100195.63;5006884;28;20053;-73
2023/07/29 03:00:48;;;;;;;0.47;0.20;;;;;;;13.40;72.33;100199.88;5007069;28;20060;-73
2023/07/29 03:03:14;;;;;;;2.88;0.30;;;;;;;13.41;72.48;100200.75;5008173;28;20065;-74
2023/07/29 03:05:43;;;;;;;1.98;0.40;;;;;;;13.40;72.54;100194.63;5010953;28;20049;-73
2023/07/29 03:08:09;;;;;;;2.50;0.40;;;;;;;13.40;72.40;100192.00;5010468;28;20049;-73
2023/07/29 03:10:37;;;;;;;0.40;0.40;;;;;;;13.41;72.61;100195.53;5010572;28;20494;-73
2023/07/29 03:13:04;;;;;;;4.47;0.40;;;;;;;13.41;72.51;100185.03;5010215;28;20676;-73
2023/07/29 03:15:30;;;;;;;5.68;0.32;;;;;;;13.40;72.61;100185.91;5010092;28;20224;-73
2023/07/29 03:17:57;;;;;;;0.75;0.30;;;;;;;13.41;72.73;100179.78;5009663;28;20229;-73
2023/07/29 03:20:24;;;;;;;0.70;0.32;;;;;;;13.15;72.84;100147.53;5009441;28;20406;-73
2023/07/29 03:22:52;;;;;;;0.88;0.30;;;;;;;13.35;72.92;100174.75;5009340;28;20045;-73
2023/07/29 03:25:19;;;;;;;0.82;0.30;;;;;;;13.42;72.83;100191.97;5009181;28;20061;-73
2023/07/29 03:27:49;;;;;;;2.25;0.40;;;;;;;13.24;72.91;100162.91;5010395;28;20057;-74
2023/07/29 03:30:16;;;;;;;2.15;0.30;;;;;;;13.44;73.08;100187.53;5010274;28;20081;-73
2023/07/29 03:32:45;;;;;;;0.30;0.30;;;;;;;13.41;73.02;100179.78;5010213;28;20056;-73
2023/07/29 03:35:12;;;;;;;0.75;0.30;;;;;;;13.45;73.09;100181.34;5010220;28;20108;-73
2023/07/29 03:37:38;;;;;;;1.60;0.38;;;;;;;13.45;73.29;100187.44;5010230;28;20050;-74
2023/07/29 03:40:09;;;;;;;0.70;0.40;;;;;;;13.46;73.31;100194.41;5007918;28;20049;-72
2023/07/29 03:42:35;;;;;;;0.73;0.30;;;;;;;13.47;73.23;100197.91;5008343;28;20376;-74
2023/07/29 03:45:02;;;;;;;0.30;0.28;;;;;;;13.48;73.37;100202.22;5008910;28;20046;-73
2023/07/29 03:47:29;;;;;;;0.73;0.30;;;;;;;13.49;73.36;100201.31;5009747;28;20045;-73
2023/07/29 03:49:56;;;;;;;0.30;0.30;;;;;;;13.51;73.52;100202.09;5009917;28;20046;-73
2023/07/29 03:52:23;;;;;;;0.80;0.30;;;;;;;13.52;73.57;100195.94;5009909;28;20049;-73
2023/07/29 03:54:50;;;;;;;0.68;0.30;;;;;;;13.54;73.76;100195.88;5009882;28;20046;-73
2023/07/29 03:57:18;;;;;;;0.68;0.40;;;;;;;13.56;73.53;100194.06;5009905;28;20057;-73
2023/07/29 03:59:45;;;;;;;1.52;0.70;;;;;;;13.58;73.73;100198.31;5009834;28;20046;-74
2023/07/29 04:02:11;;;;;;;0.60;0.40;;;;;;;13.59;73.68;100189.53;5009680;28;20046;-73
2023/07/29 04:04:38;;;;;;;0.82;0.30;;;;;;;13.61;73.79;100195.56;5007950;28;20045;-73
2023/07/29 04:07:06;;;;;;;1.00;0.30;;;;;;;13.53;73.88;100176.66;5009618;28;20073;-73
2023/07/29 04:09:33;;;;;;;0.68;0.40;;;;;;;13.66;74.05;100193.63;5009759;28;20077;-73
2023/07/29 04:12:00;;;;;;;1.27;0.50;;;;;;;13.67;74.20;100192.69;5009634;28;20046;-73
2023/07/29 04:14:28;;;;;;;0.85;0.20;;;;;;;13.72;74.25;100203.03;5008984;28;20046;-74
2023/07/29 04:16:55;;;;;;;0.32;0.30;;;;;;;13.76;74.22;100198.50;5009367;28;20120;-74
2023/07/29 04:19:22;;;;;;;0.95;0.28;;;;;;;13.79;73.93;100190.50;5009486;28;20057;-73
2023/07/29 04:21:50;;;;;;;1.27;0.40;;;;;;;13.81;74.13;100197.38;5009241;28;20053;-73
2023/07/29 04:24:17;;;;;;;4.47;0.30;;;;;;;13.82;74.32;100191.22;5008118;28;20091;-74
2023/07/29 04:26:44;;;;;;;0.70;0.30;;;;;;;13.87;74.33;100193.66;5007691;28;20046;-74
2023/07/29 04:29:11;;;;;;;9.13;0.82;;;;;;;13.92;74.46;100196.94;5009352;28;20054;-74
2023/07/29 04:31:39;;;;;;;0.30;0.30;;;;;;;13.95;74.55;100194.19;5009285;28;20061;-73
2023/07/29 04:34:06;;;;;;;0.77;0.40;;;;;;;13.97;74.72;100184.47;5009096;28;20061;-75
2023/07/29 04:36:33;;;;;;;1.48;0.40;;;;;;;14.04;74.78;100190.31;5008055;28;20053;-74
2023/07/29 04:39:00;;;;;;;1.20;0.30;;;;;;;14.09;74.96;100194.47;5009144;28;20057;-74
2023/07/29 04:41:26;;;;;;;0.60;0.40;;;;;;;14.15;74.78;100198.63;5008990;28;20042;-74
2023/07/29 04:43:53;;;;;;;2.35;0.40;;;;;;;14.18;74.79;100196.69;5008958;28;20049;-74
2023/07/29 04:46:20;;;;;;;0.80;0.40;;;;;;;14.29;74.78;100205.91;5008895;28;20053;-74
2023/07/29 04:48:48;;;;;;;0.93;0.40;;;;;;;14.37;74.96;100206.41;5008865;28;20050;-73
2023/07/29 04:51:15;;;;;;;0.95;0.38;;;;;;;14.43;74.68;100203.53;5008479;28;20061;-74
2023/07/29 04:53:42;;;;;;;0.70;0.40;;;;;;;14.51;74.75;100200.56;5008861;28;20060;-74
2023/07/29 04:56:09;;;;;;;1.35;0.45;;;;;;;14.58;74.90;100207.28;5007539;28;20068;-74
2023/07/29 04:58:35;;;;;;;0.80;0.30;;;;;;;14.68;74.63;100199.84;5008584;28;20054;-74
2023/07/29 05:01:02;;;;;;;1.63;0.35;;;;;;;14.55;74.45;100168.84;5008640;28;20069;-74
2023/07/29 05:03:29;;;;;;;1.92;0.50;;;;;;;14.86;74.54;100199.03;5008613;28;20064;-74
2023/07/29 05:05:59;;;;;;;0.70;0.40;;;;;;;14.99;74.48;100202.78;5008316;28;20163;-74
2023/07/29 05:08:26;;;;;;;4.68;0.35;;;;;;;15.10;74.25;100199.66;5008588;28;20073;-74
2023/07/29 05:10:53;;;;;;;2.05;0.30;;;;;;;15.19;74.14;100199.22;5008380;28;20137;-74
2023/07/29 05:13:21;;;;;;;2.38;0.30;;;;;;;15.33;73.89;100200.38;5008294;28;20149;-75
2023/07/29 05:15:48;;;;;;;0.75;0.35;;;;;;;15.40;73.48;100192.13;5008254;28;20068;-75
2023/07/29 05:18:15;;;;;;;1.00;0.40;;;;;;;15.54;73.41;100196.72;5008505;28;20073;-77
2023/07/29 05:20:42;;;;;;;2.25;0.35;;;;;;;15.66;73.61;100201.41;5008201;28;20076;-74
2023/07/29 05:23:10;;;;;;;0.40;0.30;;;;;;;15.73;73.13;100197.56;5008311;28;20042;-74
2023/07/29 05:25:37;;;;;;;2.55;0.30;;;;;;;15.90;72.90;100201.13;5008311;28;20045;-74
2023/07/29 05:28:04;;;;;;;3.83;0.40;;;;;;;15.99;72.94;100195.41;5007583;28;20061;-74
2023/07/29 05:30:33;;;;;;;3.40;0.30;;;;;;;16.11;72.78;100204.50;5008133;28;20406;-73
2023/07/29 05:33:00;;;;;;;2.20;0.30;;;;;;;16.15;71.77;100190.22;5008082;28;20049;-75
2023/07/29 05:35:27;;;;;;;0.95;0.30;;;;;;;16.33;71.90;100199.81;5007916;28;20057;-74
2023/07/29 05:37:54;;;;;;;3.30;0.30;;;;;;;16.44;71.82;100198.41;5007595;28;20050;-75
2023/07/29 05:40:22;;;;;;;0.55;0.20;;;;;;;16.55;71.73;100201.34;5007983;28;20056;-74
2023/07/29 05:42:49;;;;;;;0.77;0.35;;;;;;;16.65;71.57;100199.94;5007557;28;20046;-75
2023/07/29 05:45:16;;;;;;;0.60;0.20;;;;;;;16.72;71.48;100196.03;5006701;28;20645;-74
2023/07/29 05:47:43;;;;;;;2.55;0.30;;;;;;;16.82;71.19;100199.94;5007897;28;20052;-74
2023/07/29 05:50:10;;;;;;;0.60;0.30;;;;;;;16.92;70.90;100196.78;5008198;28;20053;-80
2023/07/29 05:52:38;;;;;;;3.30;0.65;;;;;;;16.99;70.86;100198.16;5011919;28;20050;-79
2023/07/29 05:55:05;;;;;;;2.47;0.40;;;;;;;17.07;70.68;100203.88;5011593;28;20049;-80
2023/07/29 05:57:34;;;;;;;2.17;0.40;;;;;;;17.14;70.38;100213.16;5011782;28;20049;-80
2023/07/29 06:00:00;;;;;;;2.55;0.47;;;;;;;17.21;69.93;100203.97;5011075;28;20060;-80
2023/07/29 06:02:27;;;;;;;0.50;0.35;;;;;;;17.27;69.93;100202.75;5000290;28;20054;-80
2023/07/29 06:04:54;;;;;;;3.92;0.45;;;;;;;17.29;69.96;100201.75;5011330;28;20073;-80
2023/07/29 06:07:21;;;;;;;2.05;0.20;;;;;;;17.31;69.71;100189.31;5011812;28;20050;-79
2023/07/29 06:09:48;;;;;;;0.40;0.40;;;;;;;17.42;69.77;100193.16;5011415;28;20049;-80
2023/07/29 06:12:15;;;;;;;1.85;0.30;;;;;;;17.49;69.28;100199.78;5011387;28;20057;-80
2023/07/29 06:14:43;;;;;;;1.75;0.40;;;;;;;17.52;68.96;100197.81;5009807;28;20417;-79
2023/07/29 06:17:11;;;;;;;0.55;0.22;;;;;;;17.59;69.08;100206.28;5011800;28;20422;-79
2023/07/29 06:19:38;;;;;;;3.42;0.40;;;;;;;17.63;69.06;100199.84;5011071;28;20045;-80
2023/07/29 06:22:05;;;;;;;1.15;0.30;;;;;;;17.68;68.50;100205.75;5011510;28;20474;-80
2023/07/29 06:24:33;;;;;;;0.30;0.30;;;;;;;17.72;68.46;100209.88;5011559;28;20399;-79
2023/07/29 06:27:00;;;;;;;0.60;0.30;;;;;;;17.75;68.26;100211.50;5005703;28;20069;-80
2023/07/29 06:29:26;;;;;;;1.20;0.30;;;;;;;17.79;67.91;100201.63;4995433;28;20313;-80
2023/07/29 06:31:55;;;;;;;3.13;0.30;;;;;;;17.82;67.96;100198.84;5011334;28;20054;-80
2023/07/29 06:34:22;;;;;;;0.75;0.30;;;;;;;17.84;67.55;100202.22;5011477;28;20491;-80
2023/07/29 06:36:49;;;;;;;1.50;0.30;;;;;;;17.86;67.71;100211.78;5011330;28;20135;-79
2023/07/29 06:39:15;;;;;;;0.68;0.30;;;;;;;17.89;67.75;100210.75;5014128;28;20050;-79
2023/07/29 06:41:42;;;;;;;0.40;0.32;;;;;;;17.91;67.56;100206.25;5015259;28;20081;-80
2023/07/29 06:44:09;;;;;;;0.52;0.28;;;;;;;17.94;67.25;100206.06;5015036;28;20050;-79
2023/07/29 06:46:36;;;;;;;1.48;0.73;;;;;;;17.97;67.45;100208.53;5015200;28;20045;-80
2023/07/29 06:49:06;;;;;;;0.30;0.30;;;;;;;17.99;67.54;100204.00;5014919;28;20046;-80
2023/07/29 06:51:34;;;;;;;0.30;0.28;;;;;;;17.93;67.02;100191.13;5014873;28;20050;-79
2023/07/29 06:54:01;;;;;;;0.88;0.30;;;;;;;18.05;66.99;100201.00;5014678;28;20525;-80
2023/07/29 06:56:28;;;;;;;0.30;0.30;;;;;;;18.07;67.22;100199.13;4995597;28;20150;-81
2023/07/29 06:58:55;;;;;;;1.02;0.30;;;;;;;18.12;67.09;100204.13;5013384;28;20053;-79
2023/07/29 07:01:22;;;;;;;1.80;0.30;;;;;;;18.13;67.30;100203.16;5014182;28;20050;-78
2023/07/29 07:03:49;;;;;;;0.45;0.30;;;;;;;18.19;67.34;100205.47;5014677;28;20056;-79
2023/07/29 07:06:17;;;;;;;1.05;0.30;;;;;;;18.25;67.21;100204.25;5014111;28;20049;-78
2023/07/29 07:08:44;;;;;;;3.53;0.38;;;;;;;18.29;66.94;100208.41;5014461;28;20057;-79
2023/07/29 07:11:11;;;;;;;0.30;0.30;;;;;;;18.34;66.78;100214.28;5013754;28;20053;-78
2023/07/29 07:13:37;;;;;;;0.70;0.30;;;;;;;18.39;67.05;100220.16;5013822;28;20056;-78
2023/07/29 07:16:05;;;;;;;0.40;0.30;;;;;;;18.46;66.81;100218.84;5013473;28;20049;-79
2023/07/29 07:18:31;;;;;;;0.55;0.30;;;;;;;18.51;66.50;100222.06;5013507;28;20489;-78
2023/07/29 07:20:58;;;;;;;0.30;0.20;;;;;;;18.58;66.51;100218.06;5013428;28;20046;-77
2023/07/29 07:23:26;;;;;;;1.58;0.30;;;;;;;18.68;66.30;100217.53;5013328;28;20053;-77
2023/07/29 07:25:53;;;;;;;1.15;0.40;;;;;;;18.77;66.26;100219.66;5012912;28;20042;-78
2023/07/29 07:28:20;;;;;;;1.73;0.20;;;;;;;18.83;65.78;100220.13;5013167;28;20553;-78
2023/07/29 07:30:47;;;;;;;1.20;0.20;;;;;;;18.93;65.23;100222.22;5011379;28;20046;-78
2023/07/29 07:33:14;;;;;;;1.42;0.22;;;;;;;19.02;65.53;100225.13;5012995;28;20046;-78
2023/07/29 07:35:42;;;;;;;3.08;0.20;;;;;;;19.14;65.30;100220.00;5012389;28;20601;-77
2023/07/29 07:38:09;;;;;;;0.25;0.20;;;;;;;19.25;65.36;100221.03;5012531;28;20076;-77
2023/07/29 07:40:37;;;;;;;1.20;0.20;;;;;;;19.36;64.92;100219.50;5011976;28;20065;-77
2023/07/29 07:43:04;;;;;;;3.65;0.30;;;;;;;19.48;64.18;100211.63;5011520;28;20730;-77
2023/07/29 07:45:33;;;;;;;2.03;0.25;;;;;;;19.61;64.57;100210.81;5011667;28;20054;-76
2023/07/29 07:48:00;;;;;;;4.80;0.30;;;;;;;19.70;64.28;100211.13;5011493;28;20049;-77
2023/07/29 07:50:29;;;;;;;1.35;0.30;;;;;;;19.83;64.31;100202.34;5010091;28;20073;-77
2023/07/29 07:52:56;;;;;;;1.65;0.30;;;;;;;19.94;64.00;100205.97;5011224;28;20061;-77
2023/07/29 07:55:23;;;;;;;0.20;0.20;;;;;;;20.07;63.44;100207.81;5011509;28;20045;-76
2023/07/29 07:57:51;;;;;;;0.20;0.10;;;;;;;20.14;63.30;100201.16;5010652;28;20057;-77
2023/07/29 08:00:19;;;;;;;0.30;0.20;;;;;;;20.32;62.72;100205.22;5010903;28;20545;-76
2023/07/29 08:02:46;;;;;;;0.20;0.20;;;;;;;20.43;62.35;100209.75;5009816;28;20054;-78
2023/07/29 08:05:13;;;;;;;0.30;0.25;;;;;;;20.58;62.22;100214.06;5010861;28;20048;-77
2023/07/29 08:07:40;;;;;;;2.13;0.35;;;;;;;20.70;61.71;100214.19;5010708;28;20049;-77
2023/07/29 08:10:08;;;;;;;0.20;0.20;;;;;;;20.76;61.52;100201.31;5011057;28;20517;-76
2023/07/29 08:12:35;;;;;;;1.83;0.20;;;;;;;20.92;60.97;100201.09;5011257;28;20073;-77
2023/07/29 08:15:03;;;;;;;1.08;0.30;;;;;;;21.03;60.62;100200.31;5011748;28;20061;-78
2023/07/29 08:17:30;;;;;;;0.30;0.20;;;;;;;21.14;60.68;100195.09;5011260;28;20128;-77
2023/07/29 08:19:57;;;;;;;0.20;0.20;;;;;;;21.24;59.87;100195.28;5011283;28;20045;-78
2023/07/29 08:22:24;;;;;;;1.85;0.30;;;;;;;21.28;59.49;100186.97;5011205;28;20057;-77
2023/07/29 08:24:51;;;;;;;0.40;0.20;;;;;;;21.42;58.76;100196.63;5010012;28;20534;-77
2023/07/29 08:27:17;;;;;;;0.35;0.20;;;;;;;21.51;58.21;100187.13;5011552;28;20045;-78
2023/07/29 08:29:44;;;;;;;0.95;0.20;;;;;;;21.60;58.24;100190.91;5011676;28;20092;-78
2023/07/29 08:32:12;;;;;;;1.58;0.20;;;;;;;21.70;58.02;100197.25;5011132;28;20049;-78
2023/07/29 08:34:39;;;;;;;0.60;0.20;;;;;;;21.75;57.94;100203.94;5011394;28;20498;-78
2023/07/29 08:37:07;;;;;;;1.95;0.30;;;;;;;21.83;58.05;100194.53;5011086;28;20053;-77
2023/07/29 08:39:34;;;;;;;1.67;0.20;;;;;;;21.90;57.42;100198.44;5011503;28;20134;-78
2023/07/29 08:42:04;;;;;;;0.10;0.10;;;;;;;21.99;57.66;100198.56;5010690;28;20444;-77
2023/07/29 08:44:37;;;;;;;0.20;0.20;;;;;;;22.05;57.01;100189.28;5011222;28;20056;-78
2023/07/29 08:47:04;;;;;;;0.10;0.10;;;;;;;22.15;56.30;100192.97;5009431;28;20050;-78
2023/07/29 08:49:33;;;;;;;1.85;0.20;;;;;;;22.22;56.31;100194.19;5011557;28;20046;-78
2023/07/29 08:52:00;;;;;;;1.15;0.20;;;;;;;22.30;55.47;100198.09;5008606;28;20056;-78
2023/07/29 08:54:28;;;;;;;0.30;0.20;;;;;;;22.34;55.49;100191.56;5008114;28;20050;-78
2023/07/29 08:56:55;;;;;;;1.48;0.15;;;;;;;22.39;55.31;100190.25;5011046;28;20046;-78
2023/07/29 08:59:22;;;;;;;1.52;0.20;;;;;;;22.45;55.32;100188.94;5011022;28;20042;-78
2023/07/29 09:01:50;;;;;;;0.30;0.20;;;;;;;22.52;54.88;100186.66;5006577;28;20068;-79
2023/07/29 09:04:17;;;;;;;1.67;0.95;;;;;;;22.56;54.45;100194.28;5011019;28;20137;-78
2023/07/29 09:06:48;;;;;;;0.57;0.40;;;;;;;22.60;55.21;100189.56;5010999;28;20045;-78
2023/07/29 09:09:15;;;;;;;2.70;0.30;;;;;;;22.66;54.37;100181.94;5010913;28;20053;-79
2023/07/29 09:11:42;;;;;;;0.35;0.25;;;;;;;22.71;54.78;100196.69;5011300;28;20149;-78
2023/07/29 09:14:09;;;;;;;3.08;0.20;;;;;;;22.77;54.03;100198.88;5010959;28;20056;-79
2023/07/29 09:16:36;;;;;;;0.20;0.10;;;;;;;22.82;52.80;100196.69;5011208;28;20046;-78
2023/07/29 09:19:04;;;;;;;0.70;0.20;;;;;;;22.88;52.50;100190.88;5011151;28;20053;-78
2023/07/29 09:21:31;;;;;;;6.88;0.30;;;;;;;22.94;52.57;100190.44;5010960;28;20139;-78
2023/07/29 09:24:05;;;;;;;0.75;0.20;;;;;;;22.98;52.41;100191.91;5010864;28;20050;-78
2023/07/29 09:26:32;;;;;;;1.63;0.20;;;;;;;23.03;52.52;100196.88;5009562;28;20046;-79
2023/07/29 09:29:00;;;;;;;0.10;0.10;;;;;;;23.07;52.48;100191.16;5010816;28;20041;-79
2023/07/29 09:31:28;;;;;;;1.98;0.20;;;;;;;23.15;52.74;100195.88;5010354;28;20046;-80
2023/07/29 09:33:58;;;;;;;0.50;0.20;;;;;;;23.19;52.62;100189.31;5010607;28;20049;-78
2023/07/29 09:36:25;;;;;;;5.38;1.67;;;;;;;23.24;52.07;100207.59;5010771;28;20078;-78
2023/07/29 09:38:55;;;;;;;0.30;0.20;;;;;;;23.27;51.36;100199.38;5010551;28;20581;-78
2023/07/29 09:41:24;;;;;;;0.30;0.20;;;;;;;23.31;51.34;100193.69;5010768;28;20049;-78
2023/07/29 09:43:57;;;;;;;0.20;0.20;;;;;;;23.37;51.81;100200.31;5008943;28;20392;-79
2023/07/29 09:46:25;;;;;;;0.38;0.10;;;;;;;23.38;51.31;100194.00;5010771;28;20127;-78
2023/07/29 09:48:54;;;;;;;0.82;0.20;;;;;;;23.41;51.45;100185.75;5010373;28;20050;-78
2023/07/29 09:51:21;;;;;;;0.30;0.20;;;;;;;23.48;51.82;100200.31;5010593;28;20077;-78
2023/07/29 09:53:50;;;;;;;0.68;0.15;;;;;;;23.54;51.11;100194.47;5010179;28;20135;-79
2023/07/29 09:56:17;;;;;;;1.88;0.22;;;;;;;23.43;50.29;100172.31;5006645;28;20053;-77
2023/07/29 09:58:46;;;;;;;0.40;0.20;;;;;;;23.63;50.15;100197.34;5010449;28;20050;-78
2023/07/29 10:01:13;;;;;;;2.33;0.20;;;;;;;23.64;50.71;100194.53;5010386;28;20123;-79
2023/07/29 10:03:41;;;;;;;1.90;0.57;;;;;;;23.68;50.84;100195.13;5010609;28;20144;-78
2023/07/29 10:06:08;;;;;;;0.45;0.20;;;;;;;23.72;50.81;100191.28;5010544;28;20046;-78
2023/07/29 10:08:38;;;;;;;1.75;0.20;;;;;;;23.69;50.94;100183.50;5008308;28;20053;-79
2023/07/29 10:11:06;;;;;;;0.90;0.10;;;;;;;23.81;50.55;100190.50;5009988;28;20046;-78
2023/07/29 10:13:34;;;;;;;0.38;0.20;;;;;;;23.85;49.47;100188.44;5009928;28;20057;-79
2023/07/29 10:16:03;;;;;;;0.10;0.10;;;;;;;23.89;50.09;100190.72;5010057;28;20050;-78
2023/07/29 10:18:31;;;;;;;1.15;0.20;;;;;;;23.92;50.14;100186.94;5010064;28;20050;-79
2023/07/29 10:20:59;;;;;;;1.63;0.20;;;;;;;23.94;49.43;100199.19;5009928;28;20041;-78
2023/07/29 10:23:28;;;;;;;0.20;0.20;;;;;;;23.93;48.96;100181.47;5010314;28;20054;-78
2023/07/29 10:26:03;;;;;;;1.55;0.10;;;;;;;23.92;49.16;100181.63;5010202;28;20053;-79
2023/07/29 10:28:32;;;;;;;0.93;0.20;;;;;;;23.97;48.24;100182.94;5009309;28;20077;-79
2023/07/29 10:30:59;;;;;;;0.28;0.20;;;;;;;23.78;48.32;100154.28;5010055;28;20042;-79
2023/07/29 10:33:28;;;;;;;2.17;0.10;;;;;;;23.94;48.53;100175.19;5010220;28;20064;-79
2023/07/29 10:35:55;;;;;;;0.20;0.20;;;;;;;23.99;48.37;100183.66;5010040;28;20050;-79
2023/07/29 10:38:23;;;;;;;5.05;0.10;;;;;;;23.92;48.44;100166.44;5010490;28;20494;-78
2023/07/29 10:40:52;;;;;;;0.40;0.20;;;;;;;24.01;48.48;100184.34;5010300;28;20054;-79
2023/07/29 10:43:26;;;;;;;2.22;0.20;;;;;;;24.04;48.17;100177.06;5009943;28;20064;-78
2023/07/29 10:45:53;;;;;;;0.50;0.20;;;;;;;24.05;47.90;100179.63;5005698;28;20056;-78
2023/07/29 10:48:43;;;;;;;0.28;0.20;;;;;;;24.07;48.61;100177.66;5009959;28;20406;-79
2023/07/29 10:51:33;;;;;;;1.10;0.20;;;;;;;24.07;48.58;100185.66;5005734;28;20053;-78
2023/07/29 10:54:02;;;;;;;1.38;0.10;;;;;;;24.08;47.86;100184.69;5008426;28;20057;-78
2023/07/29 10:56:30;;;;;;;1.13;0.20;;;;;;;24.06;47.88;100188.47;5005977;28;20049;-78
2023/07/29 10:58:58;;;;;;;1.08;0.20;;;;;;;24.09;47.63;100185.53;5008022;28;20053;-78
2023/07/29 11:01:29;;;;;;;0.88;0.10;;;;;;;24.10;47.34;100181.88;5009471;28;20054;-78
2023/07/29 11:04:26;;;;;;;0.47;0.20;;;;;;;24.11;47.61;100186.25;5009075;28;20093;-78
2023/07/29 11:07:22;;;;;;;0.88;0.17;;;;;;;24.10;46.76;100179.22;5009444;28;20776;-78
2023/07/29 11:09:55;;;;;;;3.40;0.20;;;;;;;24.09;46.49;100182.88;5008885;28;20411;-77
2023/07/29 11:12:43;;;;;;;0.73;0.20;;;;;;;24.08;46.60;100176.69;5009766;28;20046;-78
2023/07/29 11:15:21;;;;;;;0.20;0.20;;;;;;;24.05;46.69;100174.28;5006451;28;20471;-78
2023/07/29 11:17:49;;;;;;;0.10;0.10;;;;;;;24.04;46.55;100185.06;5007034;28;20720;-79
2023/07/29 11:20:19;;;;;;;0.68;0.17;;;;;;;24.02;45.93;100186.06;5009582;28;20710;-78
2023/07/29 11:22:46;;;;;;;1.65;0.10;;;;;;;24.01;46.20;100191.50;5009340;28;20050;-78
2023/07/29 11:25:14;;;;;;;1.83;0.10;;;;;;;24.00;45.53;100182.66;5010796;28;20053;-78
2023/07/29 11:27:41;;;;;;;2.88;0.20;;;;;;;24.00;46.29;100195.16;5013196;28;20121;-78